Time;durP1;ratioP1;P1;durP2;ratioP2;P2;SDS_P1;SDS_P2;PMS_P1;PMS_P2;Temp;Humidity;BMP_temperature;BMP_pressure;BME280_temperature;BME280_humidity;BME280_pressure;Samples;Min_cycle;Max_cycle;Signal;HPM_P1;HPM_P2
2022/08/12 00:43:16;;;;;;;2.57;2.37;;;16.00;1.00;;;;;;5055014;28;20446;-72
2022/08/12 00:48:27;;;;;;;2.70;2.40;;;16.10;16.90;;;;;;5054670;28;20428;-73
2022/08/12 00:50:55;;;;;;;3.30;2.27;;;16.10;1.00;;;;;;5053183;28;20453;-77
2022/08/12 00:53:22;;;;;;;3.20;2.37;;;16.10;8.40;;;;;;5054419;28;20405;-76
2022/08/12 00:55:50;;;;;;;2.60;2.40;;;16.10;11.80;;;;;;5053543;28;20409;-73
2022/08/12 00:58:22;;;;;;;5.30;4.03;;;16.10;14.40;;;;;;5053662;28;20505;-77
2022/08/12 01:00:49;;;;;;;18.10;8.10;;;16.10;13.80;;;;;;5053066;28;20512;-73
2022/08/12 01:03:19;;;;;;;13.50;8.77;;;16.10;18.20;;;;;;5054231;28;20409;-72
2022/08/12 01:11:28;;;;;;;7.07;4.67;;;16.00;24.80;;;;;;5034291;28;20456;-76
2022/08/12 01:13:56;;;;;;;7.20;4.90;;;16.00;22.30;;;;;;5033525;28;20951;-76
2022/08/12 01:16:22;;;;;;;5.57;4.23;;;16.00;49.40;;;;;;5040033;28;20457;-76
2022/08/12 01:18:51;;;;;;;2.83;2.50;;;16.00;44.40;;;;;;5053730;28;20425;-76
2022/08/12 01:21:26;;;;;;;2.10;1.90;;;15.90;53.80;;;;;;5047511;28;20424;-72
2022/08/12 01:24:07;;;;;;;2.57;2.20;;;15.80;53.50;;;;;;5034898;28;20415;-76
2022/08/12 01:26:33;;;;;;;5.23;2.40;;;15.70;49.80;;;;;;5032901;28;20437;-72
2022/08/12 01:29:02;;;;;;;4.00;2.50;;;15.60;51.10;;;;;;5036925;28;20790;-77
2022/08/12 01:31:28;;;;;;;3.10;2.63;;;15.60;45.10;;;;;;5052966;28;20905;-75
2022/08/12 01:34:08;;;;;;;2.27;2.17;;;15.60;41.50;;;;;;5051271;28;20758;-77
2022/08/12 01:36:44;;;;;;;2.43;2.30;;;15.60;37.10;;;;;;5032880;28;20399;-72
2022/08/12 01:39:13;;;;;;;2.40;2.30;;;15.50;35.10;;;;;;5037162;28;20437;-72
2022/08/12 01:41:44;;;;;;;3.27;2.50;;;15.50;22.50;;;;;;5053473;28;20428;-77
2022/08/12 01:44:12;;;;;;;3.20;2.37;;;15.50;27.80;;;;;;5049785;28;20910;-75
2022/08/12 01:46:55;;;;;;;2.57;2.10;;;15.50;42.10;;;;;;5032609;28;20402;-72
2022/08/12 01:49:41;;;;;;;3.10;2.17;;;15.40;73.10;;;;;;5035651;28;20998;-72
2022/08/12 01:52:19;;;;;;;2.27;2.17;;;15.40;77.60;;;;;;5053260;28;20405;-72
2022/08/12 01:54:46;;;;;;;2.40;2.30;;;15.30;68.00;;;;;;5046113;28;20416;-73
2022/08/12 01:57:46;;;;;;;2.73;2.07;;;15.20;78.60;;;;;;5031933;28;20485;-77
2022/08/12 02:00:14;;;;;;;3.00;2.63;;;15.20;72.30;;;;;;5041749;28;20421;-77
2022/08/12 02:02:52;;;;;;;4.70;2.43;;;15.10;61.50;;;;;;5053160;28;20452;-72
2022/08/12 02:11:42;;;;;;;2.43;2.33;;;15.00;92.00;;;;;;5052792;28;20514;-72
2022/08/12 02:14:29;;;;;;;2.83;2.60;;;14.90;85.80;;;;;;5039319;28;20906;-76
2022/08/12 02:17:14;;;;;;;4.00;2.23;;;14.80;74.80;;;;;;5032176;28;20406;-72
2022/08/12 02:20:01;;;;;;;2.40;2.30;;;14.80;71.90;;;;;;5050135;28;20413;-72
2022/08/12 02:22:37;;;;;;;2.00;1.90;;;14.80;68.50;;;;;;5052858;28;20890;-77
2022/08/12 02:25:07;;;;;;;2.60;2.40;;;14.90;81.40;;;;;;5032157;28;20422;-77
2022/08/12 02:27:44;;;;;;;2.53;2.10;;;14.80;85.00;;;;;;5031992;28;20787;-76
2022/08/12 02:30:13;;;;;;;4.37;3.20;;;14.80;73.10;;;;;;5032842;28;20532;-76
2022/08/12 02:32:44;;;;;;;2.43;2.23;;;14.80;93.80;;;;;;5032890;28;20377;-76
2022/08/12 02:35:18;;;;;;;3.40;2.73;;;14.80;93.80;;;;;;5052530;28;20445;-72
2022/08/12 02:37:46;;;;;;;3.20;3.00;;;14.70;93.80;;;;;;5051800;28;20439;-76
2022/08/12 02:40:13;;;;;;;2.60;2.40;;;14.60;95.20;;;;;;5031794;28;20426;-73
2022/08/12 02:42:57;;;;;;;3.03;2.83;;;14.50;93.70;;;;;;5032609;28;20394;-72
2022/08/12 02:45:44;;;;;;;3.27;3.00;;;14.50;93.70;;;;;;5032986;28;20917;-75
2022/08/12 02:48:16;;;;;;;4.90;2.67;;;14.40;97.20;;;;;;5033643;28;20426;-72
2022/08/12 02:50:47;;;;;;;4.77;2.73;;;14.50;99.90;;;;;;5052529;28;20919;-76
2022/08/12 02:53:13;;;;;;;6.00;2.60;;;14.50;99.90;;;;;;5050985;28;20409;-73
2022/08/12 02:55:40;;;;;;;3.30;2.50;;;14.50;99.90;;;;;;5052680;28;20463;-76
2022/08/12 02:58:08;;;;;;;2.63;2.43;;;14.50;99.90;;;;;;5050201;28;20465;-75
2022/08/12 03:00:36;;;;;;;2.70;2.50;;;14.50;93.70;;;;;;5032145;28;20409;-76
2022/08/12 03:03:05;;;;;;;2.53;2.33;;;14.40;93.70;;;;;;5032614;28;20384;-77
2022/08/12 03:05:32;;;;;;;3.17;2.63;;;14.40;97.70;;;;;;5032842;28;20431;-77
2022/08/12 03:08:03;;;;;;;2.80;2.60;;;14.40;99.90;;;;;;5031730;28;20422;-76
2022/08/12 03:10:33;;;;;;;4.80;2.50;;;14.30;99.90;;;;;;5054830;28;20975;-77
2022/08/12 03:13:00;;;;;;;3.37;3.07;;;14.30;99.90;;;;;;5053258;28;20416;-76
2022/08/12 03:15:26;;;;;;;3.47;3.20;;;14.30;99.90;;;;;;5036291;28;20452;-73
2022/08/12 03:18:13;;;;;;;2.70;2.50;;;14.30;99.90;;;;;;5034934;28;20426;-73
2022/08/12 03:20:39;;;;;;;2.70;2.50;;;14.30;99.90;;;;;;5036171;28;20178;-77
2022/08/12 03:23:12;;;;;;;5.27;2.43;;;14.20;99.90;;;;;;5036991;28;20414;-76
2022/08/12 03:25:40;;;;;;;2.73;2.53;;;14.10;99.90;;;;;;5056138;28;20480;-72
2022/08/12 03:28:09;;;;;;;2.67;2.47;;;14.10;99.90;;;;;;5049371;28;20435;-72
2022/08/12 03:30:36;;;;;;;2.97;2.77;;;14.10;99.90;;;;;;5036009;28;20450;-76
2022/08/12 03:33:04;;;;;;;4.07;2.83;;;14.00;99.90;;;;;;5038838;28;20413;-75
2022/08/12 03:35:33;;;;;;;2.93;2.73;;;14.00;99.90;;;;;;5055211;28;20413;-76
2022/08/12 03:38:07;;;;;;;3.23;2.30;;;14.00;99.90;;;;;;5052432;28;20460;-77
2022/08/12 04:00:24;;;;;;;2.60;2.40;;;13.90;99.90;;;;;;5036183;28;20427;-72
2022/08/12 04:03:00;;;;;;;3.30;2.53;;;13.90;99.90;;;;;;5035454;28;20449;-77
2022/08/12 04:05:31;;;;;;;3.63;2.80;;;13.80;99.90;;;;;;5054369;28;20413;-72
2022/08/12 04:07:58;;;;;;;3.20;2.90;;;13.80;99.90;;;;;;5044078;28;20434;-72
2022/08/12 04:13:14;;;;;;;4.47;2.90;;;13.70;99.90;;;;;;5035065;28;20946;-72
2022/08/12 04:13:19;;;;;;;2.90;2.70;;;13.80;99.90;;;;;;5046386;28;20757;-72
2022/08/12 04:15:46;;;;;;;8.60;3.30;;;13.80;99.90;;;;;;5054907;28;20406;-76
2022/08/12 04:18:14;;;;;;;2.50;2.20;;;13.80;99.90;;;;;;5043191;28;20435;-77
2022/08/12 04:20:43;;;;;;;3.73;2.70;;;13.80;99.90;;;;;;5034760;28;20406;-72
2022/08/12 04:23:11;;;;;;;2.73;2.53;;;13.90;99.90;;;;;;5038445;28;20842;-71
2022/08/12 04:25:39;;;;;;;2.60;2.40;;;13.80;99.90;;;;;;5033951;28;20798;-76
2022/08/12 04:28:07;;;;;;;2.60;2.30;;;13.90;99.90;;;;;;5032921;28;20785;-73
2022/08/12 04:30:33;;;;;;;4.80;2.67;;;13.90;99.90;;;;;;5039223;28;20871;-77
2022/08/12 04:32:59;;;;;;;3.30;2.80;;;13.80;99.90;;;;;;5040949;28;20440;-72
2022/08/12 04:35:24;;;;;;;3.77;3.17;;;13.80;99.90;;;;;;5034709;28;20742;-76
2022/08/12 04:37:56;;;;;;;2.63;2.43;;;13.90;99.90;;;;;;5046570;28;20195;-72
2022/08/12 04:40:24;;;;;;;2.83;2.63;;;13.80;99.90;;;;;;5054697;28;20211;-77
2022/08/12 04:42:52;;;;;;;2.90;2.70;;;13.80;99.90;;;;;;5042069;28;20501;-72
2022/08/12 04:45:19;;;;;;;2.30;2.20;;;13.90;99.90;;;;;;5033133;28;20413;-74
2022/08/12 04:47:46;;;;;;;6.90;3.20;;;13.90;99.90;;;;;;5043831;28;20767;-77
2022/08/12 04:50:16;;;;;;;2.90;2.70;;;14.00;99.90;;;;;;5054367;28;20452;-77
2022/08/12 04:52:42;;;;;;;2.20;2.10;;;14.00;99.90;;;;;;5044056;28;20505;-72
2022/08/12 04:55:11;;;;;;;2.60;2.40;;;14.00;99.90;;;;;;5034434;28;20544;-76
2022/08/12 04:57:37;;;;;;;2.63;2.43;;;14.00;99.90;;;;;;5041666;28;20198;-77
2022/08/12 05:00:12;;;;;;;3.57;2.30;;;14.10;99.90;;;;;;5054225;28;20455;-72
2022/08/12 05:02:38;;;;;;;4.40;2.43;;;14.10;99.90;;;;;;5046024;28;20830;-76
2022/08/12 05:05:07;;;;;;;3.73;2.17;;;14.10;99.90;;;;;;5034079;28;20496;-71
2022/08/12 05:07:34;;;;;;;2.50;2.30;;;14.20;99.90;;;;;;5038834;28;20678;-77
2022/08/12 05:10:00;;;;;;;2.30;2.00;;;14.20;99.90;;;;;;5052724;28;20807;-72
2022/08/12 05:12:35;;;;;;;2.57;2.40;;;14.30;99.90;;;;;;5048816;28;20450;-77
2022/08/12 05:15:01;;;;;;;2.43;2.33;;;14.30;99.90;;;;;;5034054;28;20402;-72
2022/08/12 05:17:28;;;;;;;2.73;2.53;;;14.40;99.90;;;;;;5037173;28;20445;-72
2022/08/12 05:19:53;;;;;;;2.83;2.63;;;14.40;99.90;;;;;;5053880;28;20380;-73
2022/08/12 05:22:19;;;;;;;2.40;2.20;;;14.50;99.90;;;;;;5050870;28;20426;-71
2022/08/12 05:24:46;;;;;;;2.97;2.77;;;14.50;99.90;;;;;;5032420;28;20175;-77
2022/08/12 05:27:12;;;;;;;2.60;2.27;;;14.60;99.90;;;;;;5033255;28;20250;-77
2022/08/12 05:29:39;;;;;;;3.10;2.47;;;14.60;99.90;;;;;;5053583;28;20429;-72
2022/08/12 05:32:07;;;;;;;2.93;2.63;;;14.70;99.90;;;;;;5049126;28;20199;-76
2022/08/12 05:34:33;;;;;;;3.03;2.73;;;14.80;99.90;;;;;;5033974;28;20433;-72
2022/08/12 05:37:00;;;;;;;4.30;2.67;;;14.90;99.90;;;;;;5032922;28;20377;-72
2022/08/12 05:39:26;;;;;;;3.10;2.90;;;15.00;99.90;;;;;;5033344;28;20427;-75
2022/08/12 05:41:52;;;;;;;3.57;3.30;;;15.20;99.90;;;;;;5032938;28;20413;-74
2022/08/12 05:44:18;;;;;;;3.03;2.83;;;15.30;99.90;;;;;;5053411;28;20837;-74
2022/08/12 05:46:44;;;;;;;3.70;2.93;;;15.40;99.90;;;;;;5050159;28;20466;-74
2022/08/12 05:49:10;;;;;;;2.83;2.63;;;15.50;99.90;;;;;;5033309;28;20253;-74
2022/08/12 05:51:37;;;;;;;3.73;3.43;;;15.60;99.90;;;;;;5033625;28;20454;-71
2022/08/12 05:54:03;;;;;;;3.10;2.80;;;15.80;99.90;;;;;;5053248;28;20494;-72
2022/08/12 05:56:32;;;;;;;3.03;2.83;;;15.90;99.90;;;;;;5052385;28;20896;-71
2022/08/12 05:59:00;;;;;;;9.10;3.40;;;16.00;99.90;;;;;;5033421;28;20442;-74
2022/08/12 06:01:27;;;;;;;3.73;3.47;;;16.10;99.90;;;;;;5032756;28;20883;-77
2022/08/12 06:03:54;;;;;;;3.80;2.80;;;16.20;99.90;;;;;;5051108;28;20429;-71
2022/08/12 06:06:21;;;;;;;4.00;2.73;;;16.30;99.90;;;;;;5046271;28;21140;-78
2022/08/12 06:08:52;;;;;;;3.13;2.83;;;16.40;99.90;;;;;;5033106;28;20445;-70
2022/08/12 06:11:19;;;;;;;5.30;3.10;;;16.60;99.90;;;;;;5034219;28;20450;-71
2022/08/12 06:13:44;;;;;;;2.97;2.43;;;16.70;99.90;;;;;;5033008;28;20476;-76
2022/08/12 06:16:16;;;;;;;3.23;2.93;;;16.80;99.90;;;;;;5044172;28;20437;-70
2022/08/12 06:18:43;;;;;;;9.13;5.90;;;16.90;99.90;;;;;;5052975;28;20248;-75
2022/08/12 06:21:10;;;;;;;14.57;4.60;;;17.10;99.90;;;;;;5039713;28;20509;-71
2022/08/12 06:23:36;;;;;;;3.50;3.20;;;17.10;99.90;;;;;;5033001;28;20414;-75
2022/08/12 06:26:04;;;;;;;6.23;3.63;;;17.30;99.90;;;;;;5042435;28;20421;-74
2022/08/12 06:28:33;;;;;;;3.60;3.30;;;17.30;99.90;;;;;;5052751;28;20422;-75
2022/08/12 06:30:58;;;;;;;2.30;2.10;;;17.50;99.90;;;;;;5042977;28;20469;-71
2022/08/12 06:33:25;;;;;;;4.73;2.30;;;17.60;99.90;;;;;;5032566;28;20417;-72
2022/08/12 06:35:52;;;;;;;2.57;2.37;;;17.70;99.90;;;;;;5040395;28;20224;-75
2022/08/12 06:38:24;;;;;;;3.07;2.87;;;17.80;99.90;;;;;;5050113;28;20444;-71
2022/08/12 06:43:42;;;;;;;3.93;2.53;;;17.90;99.90;;;;;;5035762;28;20443;-75
2022/08/12 06:46:09;;;;;;;2.73;2.53;;;18.10;99.90;;;;;;5039284;28;20422;-71
2022/08/12 06:48:36;;;;;;;3.03;2.53;;;18.20;99.90;;;;;;5036670;28;20436;-71
2022/08/12 06:51:02;;;;;;;2.87;2.60;;;18.30;99.90;;;;;;5035473;28;20505;-75
2022/08/12 06:53:31;;;;;;;2.63;2.43;;;18.40;99.90;;;;;;5036835;28;20912;-75
2022/08/12 06:55:59;;;;;;;2.30;2.10;;;18.60;99.90;;;;;;5036628;28;20425;-75
2022/08/12 06:58:26;;;;;;;2.37;2.20;;;18.70;99.90;;;;;;5035855;28;20418;-75
2022/08/12 07:00:53;;;;;;;2.60;2.40;;;18.70;99.90;;;;;;5036527;28;20422;-70
2022/08/12 07:03:27;;;;;;;5.93;2.60;;;18.90;99.90;;;;;;5036769;28;20505;-77
2022/08/12 07:05:55;;;;;;;2.60;2.40;;;19.00;99.90;;;;;;5036308;28;20390;-75
2022/08/12 07:08:21;;;;;;;2.80;2.50;;;19.10;99.90;;;;;;5035819;28;20440;-70
2022/08/12 07:10:57;;;;;;;3.90;3.00;;;19.30;99.90;;;;;;5036234;28;20461;-71
2022/08/12 07:13:36;;;;;;;3.30;3.00;;;19.40;99.90;;;;;;5036246;28;20168;-72
2022/08/12 07:16:03;;;;;;;12.37;9.30;;;19.50;99.90;;;;;;5035307;28;20406;-74
2022/08/12 07:18:31;;;;;;;6.10;5.13;;;19.70;99.90;;;;;;5035293;28;20444;-76
2022/08/12 07:21:02;;;;;;;3.00;2.53;;;19.80;99.90;;;;;;5036121;28;20518;-71
2022/08/12 07:23:33;;;;;;;3.93;2.40;;;20.00;99.90;;;;;;5036265;28;20402;-75
2022/08/12 07:26:04;;;;;;;2.30;2.10;;;20.10;99.90;;;;;;5034337;28;20421;-73
2022/08/12 07:28:33;;;;;;;2.63;2.43;;;20.20;99.90;;;;;;5036061;28;20480;-75
2022/08/12 07:31:02;;;;;;;2.50;2.13;;;20.40;75.10;;;;;;5035749;28;20458;-71
2022/08/12 07:33:28;;;;;;;2.43;2.23;;;20.40;92.20;;;;;;5035351;28;20403;-72
2022/08/12 07:35:57;;;;;;;3.30;2.77;;;20.50;95.90;;;;;;5035825;28;20425;-75
2022/08/12 07:38:35;;;;;;;2.83;2.00;;;20.70;96.00;;;;;;5035313;28;20942;-71
2022/08/12 07:41:06;;;;;;;2.63;2.37;;;20.80;67.00;;;;;;5034462;28;20506;-76
2022/08/12 07:43:35;;;;;;;2.70;2.50;;;20.90;58.40;;;;;;5035765;28;20402;-76
2022/08/12 07:46:03;;;;;;;2.47;2.27;;;21.00;66.50;;;;;;5034713;28;20418;-72
2022/08/12 07:48:36;;;;;;;2.23;2.03;;;21.10;76.30;;;;;;5035718;28;20430;-71
2022/08/12 07:51:02;;;;;;;2.50;2.30;;;21.30;61.90;;;;;;5035458;28;20477;-76
2022/08/12 07:53:28;;;;;;;3.63;3.23;;;21.40;10.60;;;;;;5034612;28;20438;-71
2022/08/12 07:55:53;;;;;;;3.37;2.80;;;21.50;1.00;;;;;;5034729;28;20180;-76
2022/08/12 07:58:19;;;;;;;2.37;2.17;;;21.70;3.90;;;;;;5033673;28;20719;-77
2022/08/12 08:00:44;;;;;;;2.70;2.50;;;21.80;5.10;;;;;;5034250;28;20537;-74
2022/08/12 08:03:12;;;;;;;2.63;2.43;;;21.90;1.00;;;;;;5034051;28;20198;-71
2022/08/12 08:05:47;;;;;;;2.70;2.30;;;22.00;1.00;;;;;;5035379;28;20247;-76
2022/08/12 08:08:19;;;;;;;2.80;2.60;;;22.10;1.00;;;;;;5034085;28;20430;-72
2022/08/12 08:10:45;;;;;;;3.13;2.63;;;22.20;1.00;;;;;;5034772;28;20954;-75
2022/08/12 08:13:12;;;;;;;3.83;2.20;;;22.30;1.00;;;;;;5035014;28;20395;-72
2022/08/12 08:15:39;;;;;;;3.10;2.53;;;22.40;1.00;;;;;;5035193;28;20481;-73
2022/08/12 08:18:10;;;;;;;3.63;2.67;;;22.50;1.00;;;;;;5034471;28;20423;-73
2022/08/12 08:20:44;;;;;;;3.03;2.50;;;22.60;1.00;;;;;;5035150;28;20406;-76
2022/08/12 08:23:16;;;;;;;2.90;2.40;;;22.60;1.00;;;;;;5035081;28;20403;-71
2022/08/12 08:25:42;;;;;;;6.03;2.70;;;22.80;1.00;;;;;;5034990;28;20406;-77
2022/08/12 08:28:10;;;;;;;2.53;2.30;;;22.90;1.00;;;;;;5033031;28;20442;-73
2022/08/12 08:30:39;;;;;;;2.73;2.03;;;23.10;1.00;;;;;;5034315;28;20478;-77
2022/08/12 08:33:08;;;;;;;4.13;2.30;;;23.20;1.00;;;;;;5034826;28;20898;-78
2022/08/12 08:35:34;;;;;;;3.00;2.80;;;23.30;1.00;;;;;;5033478;28;20422;-73
2022/08/12 08:38:16;;;;;;;6.20;2.37;;;23.50;1.00;;;;;;5033045;28;20456;-76
2022/08/12 08:43:31;;;;;;;2.43;2.17;;;23.80;1.00;;;;;;5034297;28;20494;-77
2022/08/12 08:45:59;;;;;;;4.60;2.17;;;23.90;1.00;;;;;;5034576;28;20421;-76
2022/08/12 08:48:25;;;;;;;2.30;2.10;;;24.00;1.00;;;;;;5033874;28;21007;-78
2022/08/12 08:50:51;;;;;;;2.27;2.07;;;24.20;1.00;;;;;;5034504;28;20450;-74
2022/08/12 08:53:18;;;;;;;2.53;2.33;;;24.40;1.00;;;;;;5034394;28;20175;-78
2022/08/12 08:55:44;;;;;;;7.63;2.70;;;24.60;1.00;;;;;;5033392;28;20403;-76
2022/08/12 08:58:10;;;;;;;7.63;2.60;;;24.70;1.00;;;;;;5033804;28;20468;-78
2022/08/12 09:00:38;;;;;;;2.07;1.80;;;24.80;1.00;;;;;;5034538;28;20457;-73
2022/08/12 09:03:04;;;;;;;4.47;2.60;;;24.90;1.00;;;;;;5034370;28;20895;-78
2022/08/12 09:05:31;;;;;;;2.50;2.30;;;25.00;99.90;;;;;;5032464;28;20933;-77
2022/08/12 09:08:03;;;;;;;2.20;2.00;;;25.10;1.00;;;;;;5032151;28;20434;-77
2022/08/12 09:10:29;;;;;;;2.60;2.30;;;25.30;99.90;;;;;;5034020;28;20469;-78
2022/08/12 09:15:40;;;;;;;3.17;2.97;;;25.60;99.90;;;;;;5034290;28;20449;-74
2022/08/12 09:18:07;;;;;;;4.87;2.47;;;25.80;99.90;;;;;;5032072;28;20444;-78
2022/08/12 09:20:34;;;;;;;3.30;2.20;;;26.00;99.90;;;;;;5033139;28;20410;-78
2022/08/12 09:23:04;;;;;;;2.87;2.60;;;26.10;99.90;;;;;;5033949;28;20407;-78
2022/08/12 09:25:31;;;;;;;2.33;1.80;;;26.30;99.90;;;;;;5032416;28;20934;-78
2022/08/12 09:28:01;;;;;;;3.03;2.10;;;26.50;99.90;;;;;;5032569;28;20461;-75
2022/08/12 09:30:27;;;;;;;3.40;2.20;;;26.60;99.90;;;;;;5032511;28;20587;-74
2022/08/12 09:32:53;;;;;;;2.50;2.30;;;26.70;99.90;;;;;;5033787;28;20402;-78
2022/08/12 09:35:22;;;;;;;2.60;2.40;;;26.80;99.90;;;;;;5033707;28;20495;-78
2022/08/12 09:37:49;;;;;;;2.77;2.57;;;26.90;99.90;;;;;;5032901;28;20410;-77
2022/08/12 09:40:17;;;;;;;2.33;2.03;;;26.90;99.90;;;;;;5033575;28;20418;-78
2022/08/12 09:45:30;;;;;;;2.60;2.07;;;27.00;99.90;;;;;;5033440;28;20405;-78
2022/08/12 09:48:02;;;;;;;2.10;1.90;;;27.20;99.90;;;;;;5032799;28;20951;-78
2022/08/12 09:50:28;;;;;;;4.37;3.27;;;27.10;99.90;;;;;;5032206;28;20917;-74
2022/08/12 09:53:08;;;;;;;9.07;2.07;;;27.10;99.90;;;;;;5032224;28;20411;-74
2022/08/12 09:55:34;;;;;;;2.60;2.40;;;27.10;99.90;;;;;;5032108;28;20410;-78
2022/08/12 09:58:01;;;;;;;2.40;2.00;;;27.10;99.90;;;;;;5032532;28;20430;-75
2022/08/12 10:00:26;;;;;;;3.77;1.97;;;27.20;99.90;;;;;;5033322;28;20415;-75
2022/08/12 10:03:04;;;;;;;2.30;2.20;;;27.50;99.90;;;;;;5032075;28;20410;-75
2022/08/12 10:05:35;;;;;;;2.33;2.13;;;27.70;99.90;;;;;;5033002;28;20205;-74
2022/08/12 10:08:04;;;;;;;3.90;1.90;;;28.00;99.90;;;;;;5032517;28;21002;-74
2022/08/12 10:10:30;;;;;;;2.83;2.03;;;28.20;99.90;;;;;;5032954;28;20458;-74
2022/08/12 10:15:44;;;;;;;3.10;1.80;;;29.00;99.90;;;;;;5033308;28;20398;-75
2022/08/12 10:18:12;;;;;;;2.50;2.13;;;29.30;99.90;;;;;;5032096;28;20422;-74
2022/08/12 10:20:39;;;;;;;4.53;2.33;;;29.70;99.90;;;;;;5033134;28;20411;-78
2022/08/12 10:23:06;;;;;;;3.30;1.83;;;29.90;99.90;;;;;;5032189;28;20434;-77
2022/08/12 10:31:02;;;;;;;3.80;2.40;;;30.50;99.90;;;;;;5032907;28;20461;-74
2022/08/12 10:33:29;;;;;;;1.67;1.57;;;30.60;99.90;;;;;;5031822;28;20414;-77
2022/08/12 10:35:57;;;;;;;2.10;2.00;;;30.80;99.90;;;;;;5032587;28;20194;-77
2022/08/12 10:38:23;;;;;;;3.00;1.87;;;31.10;99.90;;;;;;5032274;28;20426;-78
2022/08/12 10:43:42;;;;;;;2.67;2.20;;;31.40;99.90;;;;;;5033120;28;20958;-78
2022/08/12 10:46:17;;;;;;;2.50;2.10;;;31.70;99.90;;;;;;5030963;28;20417;-77
2022/08/12 10:48:47;;;;;;;2.20;1.80;;;31.80;99.90;;;;;;5031245;28;20445;-78
2022/08/12 10:51:17;;;;;;;2.27;2.07;;;31.90;99.90;;;;;;5031524;28;20458;-73
2022/08/12 10:53:44;;;;;;;1.70;1.60;;;31.90;99.90;;;;;;5032776;28;20809;-77
2022/08/12 10:56:10;;;;;;;11.17;1.80;;;32.10;99.90;;;;;;5031594;28;20413;-77
2022/08/12 10:58:37;;;;;;;3.00;1.83;;;32.40;99.90;;;;;;5032553;28;20430;-73
2022/08/12 11:01:04;;;;;;;4.30;1.90;;;32.70;99.90;;;;;;5031386;28;20565;-73
2022/08/12 11:03:35;;;;;;;5.40;1.60;;;33.10;99.90;;;;;;5032782;28;20851;-74
2022/08/12 11:06:09;;;;;;;2.10;1.90;;;33.00;99.90;;;;;;5030842;28;20814;-74
2022/08/12 11:08:37;;;;;;;5.77;1.67;;;32.50;99.90;;;;;;5031361;28;20466;-76
2022/08/12 11:11:07;;;;;;;1.87;1.77;;;32.00;99.90;;;;;;5032553;28;20446;-73
2022/08/12 11:13:36;;;;;;;5.70;2.03;;;31.90;99.90;;;;;;5031525;28;20422;-77
2022/08/12 11:16:05;;;;;;;1.80;1.67;;;32.00;99.90;;;;;;5030340;28;20421;-77
2022/08/12 11:18:31;;;;;;;3.20;1.43;;;32.30;99.90;;;;;;5032309;28;20852;-72
2022/08/12 11:20:58;;;;;;;2.40;1.80;;;32.50;99.90;;;;;;5031426;28;20505;-77
2022/08/12 11:23:24;;;;;;;5.77;2.43;;;32.70;99.90;;;;;;5032395;28;20438;-73
2022/08/12 11:25:50;;;;;;;2.17;2.00;;;32.80;99.90;;;;;;5032375;28;20541;-73
2022/08/12 11:28:17;;;;;;;3.40;1.77;;;32.60;99.90;;;;;;5031757;28;20480;-73
2022/08/12 11:30:44;;;;;;;4.30;1.47;;;33.00;99.90;;;;;;5034777;28;20946;-75
2022/08/12 11:33:13;;;;;;;4.53;1.93;;;33.00;99.90;;;;;;5034942;28;20820;-71
2022/08/12 11:35:40;;;;;;;2.70;1.87;;;32.40;99.90;;;;;;5035385;28;20410;-71
2022/08/12 11:38:06;;;;;;;4.63;1.67;;;31.70;99.90;;;;;;5035280;28;20997;-76
2022/08/12 11:40:32;;;;;;;3.07;1.70;;;31.00;99.90;;;;;;5034858;28;20418;-76
2022/08/12 11:42:59;;;;;;;3.43;2.10;;;30.60;99.90;;;;;;5035688;28;20402;-75
2022/08/12 11:45:29;;;;;;;4.73;1.80;;;30.50;99.90;;;;;;5035878;28;20568;-72
2022/08/12 11:47:58;;;;;;;2.60;1.40;;;30.40;99.90;;;;;;5034979;28;20522;-77
2022/08/12 11:50:24;;;;;;;2.40;1.93;;;30.30;99.90;;;;;;5035601;28;20989;-77
2022/08/12 11:52:51;;;;;;;1.80;1.70;;;30.30;99.90;;;;;;5036017;28;20455;-72
2022/08/12 11:55:17;;;;;;;4.13;2.20;;;30.10;99.90;;;;;;5035128;28;20815;-72
2022/08/12 11:57:51;;;;;;;2.63;2.10;;;30.10;99.90;;;;;;5033558;28;20557;-77
2022/08/12 12:00:18;;;;;;;3.40;1.90;;;30.10;99.90;;;;;;5035506;28;20414;-77
2022/08/12 12:02:46;;;;;;;2.53;1.83;;;30.10;99.90;;;;;;5034277;28;20410;-71
2022/08/12 12:05:14;;;;;;;2.70;2.10;;;30.10;99.90;;;;;;5035294;28;20426;-77
2022/08/12 12:07:41;;;;;;;1.77;1.67;;;30.10;99.90;;;;;;5034597;28;20931;-78
2022/08/12 12:10:08;;;;;;;2.27;2.07;;;30.10;99.90;;;;;;5034774;28;20442;-74
2022/08/12 12:12:34;;;;;;;3.70;2.30;;;29.80;99.90;;;;;;5033964;28;20429;-72
2022/08/12 12:14:59;;;;;;;4.03;2.63;;;29.70;99.90;;;;;;5033976;28;20500;-73
2022/08/12 12:17:26;;;;;;;2.63;2.23;;;29.60;99.90;;;;;;5034488;28;20862;-72
2022/08/12 12:19:52;;;;;;;3.00;2.50;;;29.60;99.90;;;;;;5035147;28;20259;-77
2022/08/12 12:22:19;;;;;;;2.03;1.83;;;29.60;99.90;;;;;;5034845;28;20446;-72
2022/08/12 12:24:46;;;;;;;2.30;2.10;;;29.70;99.90;;;;;;5034947;28;20417;-72
2022/08/12 12:27:12;;;;;;;5.30;1.93;;;29.80;99.90;;;;;;5034256;28;20406;-77
2022/08/12 12:29:38;;;;;;;2.17;1.97;;;30.10;99.90;;;;;;5033338;28;20422;-74
2022/08/12 12:32:03;;;;;;;2.47;1.70;;;30.20;99.90;;;;;;5033560;28;20282;-72
2022/08/12 12:34:29;;;;;;;2.77;1.63;;;30.50;99.90;;;;;;5033645;28;20621;-73
2022/08/12 12:36:55;;;;;;;3.93;1.80;;;31.00;99.90;;;;;;5034163;28;20624;-73
2022/08/12 12:39:21;;;;;;;2.70;2.13;;;31.70;99.90;;;;;;5033649;28;20196;-77
2022/08/12 12:41:47;;;;;;;3.90;1.90;;;32.40;99.90;;;;;;5033359;28;20172;-72
2022/08/12 12:44:12;;;;;;;1.87;1.70;;;32.90;99.90;;;;;;5033445;28;20433;-76
2022/08/12 12:46:38;;;;;;;2.10;2.00;;;32.90;99.90;;;;;;5033551;28;20175;-74
2022/08/12 12:49:04;;;;;;;1.80;1.70;;;33.00;99.90;;;;;;5033222;28;20199;-77
2022/08/12 12:51:29;;;;;;;3.00;1.93;;;32.90;99.90;;;;;;5034417;28;20191;-74
2022/08/12 12:53:55;;;;;;;7.60;2.27;;;33.00;99.90;;;;;;5034492;28;20178;-72
2022/08/12 12:56:22;;;;;;;1.93;1.53;;;32.70;99.90;;;;;;5033979;28;20260;-72
2022/08/12 12:58:53;;;;;;;2.57;1.97;;;32.20;99.90;;;;;;5033228;28;20194;-71
2022/08/12 13:01:24;;;;;;;2.60;2.20;;;31.70;99.90;;;;;;5034422;28;20489;-76
2022/08/12 13:03:55;;;;;;;2.83;2.20;;;31.40;99.90;;;;;;5034263;28;20497;-73
2022/08/12 13:06:28;;;;;;;3.07;1.87;;;31.00;99.90;;;;;;5033614;28;20406;-72
2022/08/12 13:08:54;;;;;;;3.67;2.10;;;30.60;99.90;;;;;;5033498;28;20430;-73
2022/08/12 13:11:21;;;;;;;2.60;1.90;;;30.50;99.90;;;;;;5033977;28;20469;-75
2022/08/12 13:13:52;;;;;;;2.20;1.70;;;30.40;99.90;;;;;;5032481;28;20953;-76
2022/08/12 13:16:21;;;;;;;2.17;1.97;;;30.40;99.90;;;;;;5032169;28;20915;-74
2022/08/12 13:18:53;;;;;;;2.13;2.00;;;30.20;99.90;;;;;;5034055;28;20838;-71
2022/08/12 13:21:19;;;;;;;2.20;1.90;;;30.30;99.90;;;;;;5034089;28;20788;-76
2022/08/12 13:23:47;;;;;;;1.80;1.70;;;30.40;99.90;;;;;;5033799;28;20505;-76
2022/08/12 13:26:14;;;;;;;4.13;2.13;;;30.60;99.90;;;;;;5032664;28;20476;-74
2022/08/12 13:28:44;;;;;;;2.53;2.23;;;30.60;99.90;;;;;;5033854;28;20765;-71
2022/08/12 13:31:11;;;;;;;1.63;1.53;;;30.50;99.90;;;;;;5033670;28;20476;-71
2022/08/12 13:33:37;;;;;;;3.40;2.33;;;30.60;99.90;;;;;;5033775;28;20433;-72
2022/08/12 13:36:04;;;;;;;8.03;2.13;;;30.70;99.90;;;;;;5033120;28;20403;-75
2022/08/12 13:38:45;;;;;;;2.27;1.60;;;30.70;99.90;;;;;;5033653;28;20870;-75
2022/08/12 13:41:17;;;;;;;6.03;1.87;;;30.70;99.90;;;;;;5033625;28;20944;-76
2022/08/12 13:43:42;;;;;;;2.17;1.80;;;30.80;99.90;;;;;;5032885;28;20394;-72
2022/08/12 13:46:12;;;;;;;2.00;1.90;;;30.90;99.90;;;;;;5032993;28;20887;-71
2022/08/12 13:48:39;;;;;;;2.03;1.70;;;30.70;99.90;;;;;;5033502;28;20651;-75
2022/08/12 13:51:05;;;;;;;1.90;1.80;;;30.60;99.90;;;;;;5033432;28;20445;-72
2022/08/12 13:53:30;;;;;;;2.73;2.10;;;30.70;99.90;;;;;;5032839;28;20933;-73
2022/08/12 13:55:56;;;;;;;2.40;2.20;;;30.80;99.90;;;;;;5033157;28;20202;-72
2022/08/12 13:58:22;;;;;;;2.83;2.30;;;30.90;99.90;;;;;;5032764;28;20192;-76
2022/08/12 14:00:51;;;;;;;2.40;2.20;;;31.00;99.90;;;;;;5033459;28;20167;-76
2022/08/12 14:03:21;;;;;;;2.20;2.00;;;30.80;99.90;;;;;;5031501;28;20164;-72
2022/08/12 14:05:47;;;;;;;4.60;1.90;;;30.60;99.90;;;;;;5033108;28;20411;-73
2022/08/12 14:08:14;;;;;;;2.20;2.10;;;30.80;99.90;;;;;;5032596;28;20437;-74
2022/08/12 14:10:49;;;;;;;3.07;1.80;;;31.00;99.90;;;;;;5033191;28;20454;-77
2022/08/12 14:13:19;;;;;;;2.33;2.13;;;31.00;99.90;;;;;;5033145;28;20438;-76
2022/08/12 14:15:51;;;;;;;2.63;1.80;;;31.00;99.90;;;;;;5033048;28;20444;-74
2022/08/12 14:18:22;;;;;;;3.47;1.90;;;31.00;99.90;;;;;;5032390;28;20427;-73
2022/08/12 14:21:03;;;;;;;4.23;2.03;;;30.90;99.90;;;;;;5032827;28;20520;-77
2022/08/12 14:23:33;;;;;;;3.43;1.87;;;30.90;99.90;;;;;;5033063;28;20416;-77
2022/08/12 14:26:02;;;;;;;2.83;2.37;;;30.80;99.90;;;;;;5032467;28;20411;-73
2022/08/12 14:28:33;;;;;;;2.80;1.90;;;30.60;99.90;;;;;;5032867;28;20430;-77
2022/08/12 14:31:01;;;;;;;4.33;1.67;;;30.40;99.90;;;;;;5033073;28;20461;-77
2022/08/12 14:33:32;;;;;;;2.67;1.90;;;30.50;99.90;;;;;;5033054;28;20394;-73
2022/08/12 14:35:59;;;;;;;1.83;1.73;;;30.70;99.90;;;;;;5032718;28;20433;-77